sensor_id;sensor_type;location;lat;lon;timestamp;temperature;humidity
39675;DHT22;27790;50.840;4.386;2022-12-20T00:00:00;13.90;99.90
39675;DHT22;27790;50.840;4.386;2022-12-20T00:02:26;13.90;99.90
39675;DHT22;27790;50.840;4.386;2022-12-20T00:04:51;13.80;99.90
39675;DHT22;27790;50.840;4.386;2022-12-20T00:07:17;13.80;99.90
39675;DHT22;27790;50.840;4.386;2022-12-20T00:09:43;13.80;99.90
39675;DHT22;27790;50.840;4.386;2022-12-20T00:12:08;13.80;99.90
39675;DHT22;27790;50.840;4.386;2022-12-20T00:14:34;13.80;99.90
39675;DHT22;27790;50.840;4.386;2022-12-20T00:17:00;13.80;99.90
39675;DHT22;27790;50.840;4.386;2022-12-20T00:19:25;13.80;99.90
39675;DHT22;27790;50.840;4.386;2022-12-20T00:21:51;13.80;99.90
39675;DHT22;27790;50.840;4.386;2022-12-20T00:24:17;13.80;99.90
39675;DHT22;27790;50.840;4.386;2022-12-20T00:26:42;13.70;99.90
39675;DHT22;27790;50.840;4.386;2022-12-20T00:29:08;13.70;99.90
39675;DHT22;27790;50.840;4.386;2022-12-20T00:31:33;13.70;99.90
39675;DHT22;27790;50.840;4.386;2022-12-20T00:34:00;13.80;99.90
39675;DHT22;27790;50.840;4.386;2022-12-20T00:36:27;13.80;99.90
39675;DHT22;27790;50.840;4.386;2022-12-20T00:38:55;13.80;99.90
39675;DHT22;27790;50.840;4.386;2022-12-20T00:41:23;13.70;99.90
39675;DHT22;27790;50.840;4.386;2022-12-20T00:43:50;13.70;99.90
39675;DHT22;27790;50.840;4.386;2022-12-20T00:46:18;13.70;99.90
39675;DHT22;27790;50.840;4.386;2022-12-20T00:48:44;13.80;99.90
39675;DHT22;27790;50.840;4.386;2022-12-20T00:51:15;13.80;99.90
39675;DHT22;27790;50.840;4.386;2022-12-20T00:53:42;13.80;99.90
39675;DHT22;27790;50.840;4.386;2022-12-20T00:56:08;13.80;99.90
39675;DHT22;27790;50.840;4.386;2022-12-20T00:58:35;13.80;99.90
39675;DHT22;27790;50.840;4.386;2022-12-20T01:01:02;13.80;99.90
39675;DHT22;27790;50.840;4.386;2022-12-20T01:03:28;13.70;99.90
39675;DHT22;27790;50.840;4.386;2022-12-20T01:05:59;13.60;99.90
39675;DHT22;27790;50.840;4.386;2022-12-20T01:08:26;13.60;99.90
39675;DHT22;27790;50.840;4.386;2022-12-20T01:11:08;13.60;99.90
39675;DHT22;27790;50.840;4.386;2022-12-20T01:13:37;13.70;99.90
39675;DHT22;27790;50.840;4.386;2022-12-20T01:16:49;13.50;99.90
39675;DHT22;27790;50.840;4.386;2022-12-20T01:18:56;13.50;99.90
39675;DHT22;27790;50.840;4.386;2022-12-20T01:21:24;13.60;99.90
39675;DHT22;27790;50.840;4.386;2022-12-20T01:23:50;13.60;99.90
39675;DHT22;27790;50.840;4.386;2022-12-20T01:26:19;13.60;99.90
39675;DHT22;27790;50.840;4.386;2022-12-20T01:28:47;13.50;99.90
39675;DHT22;27790;50.840;4.386;2022-12-20T01:31:15;13.40;99.90
39675;DHT22;27790;50.840;4.386;2022-12-20T01:33:42;13.30;99.90
39675;DHT22;27790;50.840;4.386;2022-12-20T01:36:11;13.20;99.90
39675;DHT22;27790;50.840;4.386;2022-12-20T01:38:36;13.20;99.90
39675;DHT22;27790;50.840;4.386;2022-12-20T01:41:03;13.20;99.90
39675;DHT22;27790;50.840;4.386;2022-12-20T01:46:11;13.20;99.90
39675;DHT22;27790;50.840;4.386;2022-12-20T01:48:37;13.30;99.90
39675;DHT22;27790;50.840;4.386;2022-12-20T01:51:03;13.30;99.90
39675;DHT22;27790;50.840;4.386;2022-12-20T01:53:29;13.20;99.90
39675;DHT22;27790;50.840;4.386;2022-12-20T01:55:57;13.10;99.90
39675;DHT22;27790;50.840;4.386;2022-12-20T01:58:24;13.00;99.90
39675;DHT22;27790;50.840;4.386;2022-12-20T02:00:50;13.00;99.90
39675;DHT22;27790;50.840;4.386;2022-12-20T02:03:16;13.00;99.90
39675;DHT22;27790;50.840;4.386;2022-12-20T02:05:43;13.00;99.90
39675;DHT22;27790;50.840;4.386;2022-12-20T02:08:11;13.00;99.90
39675;DHT22;27790;50.840;4.386;2022-12-20T02:16:14;13.00;99.90
39675;DHT22;27790;50.840;4.386;2022-12-20T02:18:47;13.00;99.90
39675;DHT22;27790;50.840;4.386;2022-12-20T02:23:57;13.10;99.90
39675;DHT22;27790;50.840;4.386;2022-12-20T02:31:54;13.10;99.90
39675;DHT22;27790;50.840;4.386;2022-12-20T02:34:22;13.10;99.90
39675;DHT22;27790;50.840;4.386;2022-12-20T02:36:52;13.10;99.90
39675;DHT22;27790;50.840;4.386;2022-12-20T02:39:18;13.30;99.90
39675;DHT22;27790;50.840;4.386;2022-12-20T02:41:53;13.30;99.90
39675;DHT22;27790;50.840;4.386;2022-12-20T02:44:23;13.30;99.90
39675;DHT22;27790;50.840;4.386;2022-12-20T02:47:05;13.40;99.90
39675;DHT22;27790;50.840;4.386;2022-12-20T02:49:33;13.40;99.90
39675;DHT22;27790;50.840;4.386;2022-12-20T02:52:03;13.50;99.90
39675;DHT22;27790;50.840;4.386;2022-12-20T02:54:32;13.40;99.90
39675;DHT22;27790;50.840;4.386;2022-12-20T02:57:08;13.40;99.90
39675;DHT22;27790;50.840;4.386;2022-12-20T02:59:40;13.40;99.90
39675;DHT22;27790;50.840;4.386;2022-12-20T03:02:08;13.40;99.90
39675;DHT22;27790;50.840;4.386;2022-12-20T03:04:36;13.40;99.90
39675;DHT22;27790;50.840;4.386;2022-12-20T03:07:11;13.30;99.90
39675;DHT22;27790;50.840;4.386;2022-12-20T03:09:40;13.30;99.90
39675;DHT22;27790;50.840;4.386;2022-12-20T03:12:07;13.30;99.90
39675;DHT22;27790;50.840;4.386;2022-12-20T03:14:33;13.40;99.90
39675;DHT22;27790;50.840;4.386;2022-12-20T03:16:59;13.50;99.90
39675;DHT22;27790;50.840;4.386;2022-12-20T03:19:25;13.50;99.90
39675;DHT22;27790;50.840;4.386;2022-12-20T03:21:51;13.50;99.90
39675;DHT22;27790;50.840;4.386;2022-12-20T03:24:17;13.50;99.90
39675;DHT22;27790;50.840;4.386;2022-12-20T03:26:43;13.60;99.90
39675;DHT22;27790;50.840;4.386;2022-12-20T03:29:09;13.50;99.90
39675;DHT22;27790;50.840;4.386;2022-12-20T03:31:35;13.60;99.90
39675;DHT22;27790;50.840;4.386;2022-12-20T03:34:01;13.50;99.90
39675;DHT22;27790;50.840;4.386;2022-12-20T03:36:26;13.50;99.90
39675;DHT22;27790;50.840;4.386;2022-12-20T03:38:52;13.50;99.90
39675;DHT22;27790;50.840;4.386;2022-12-20T03:41:19;13.50;99.90
39675;DHT22;27790;50.840;4.386;2022-12-20T03:43:46;13.40;99.90
39675;DHT22;27790;50.840;4.386;2022-12-20T03:46:12;13.50;99.90
39675;DHT22;27790;50.840;4.386;2022-12-20T03:48:38;13.50;99.90
39675;DHT22;27790;50.840;4.386;2022-12-20T03:51:04;13.60;99.90
39675;DHT22;27790;50.840;4.386;2022-12-20T03:53:30;13.50;99.90
39675;DHT22;27790;50.840;4.386;2022-12-20T03:55:55;13.50;99.90
39675;DHT22;27790;50.840;4.386;2022-12-20T03:58:21;13.50;99.90
39675;DHT22;27790;50.840;4.386;2022-12-20T04:00:47;13.40;99.90
39675;DHT22;27790;50.840;4.386;2022-12-20T04:03:13;13.40;99.90
39675;DHT22;27790;50.840;4.386;2022-12-20T04:05:38;13.50;99.90
39675;DHT22;27790;50.840;4.386;2022-12-20T04:08:04;13.50;99.90
39675;DHT22;27790;50.840;4.386;2022-12-20T04:10:30;13.50;99.90
39675;DHT22;27790;50.840;4.386;2022-12-20T04:12:55;13.50;99.90
39675;DHT22;27790;50.840;4.386;2022-12-20T04:15:21;13.50;99.90
39675;DHT22;27790;50.840;4.386;2022-12-20T04:17:46;13.40;99.90
39675;DHT22;27790;50.840;4.386;2022-12-20T04:20:14;13.40;99.90
39675;DHT22;27790;50.840;4.386;2022-12-20T04:22:47;13.50;99.90
39675;DHT22;27790;50.840;4.386;2022-12-20T04:25:14;13.40;99.90
39675;DHT22;27790;50.840;4.386;2022-12-20T04:27:40;13.50;99.90
39675;DHT22;27790;50.840;4.386;2022-12-20T04:30:06;13.50;99.90
39675;DHT22;27790;50.840;4.386;2022-12-20T04:32:32;13.60;99.90
39675;DHT22;27790;50.840;4.386;2022-12-20T04:34:57;13.60;99.90
39675;DHT22;27790;50.840;4.386;2022-12-20T04:37:23;13.60;99.90
39675;DHT22;27790;50.840;4.386;2022-12-20T04:39:48;13.60;99.90
39675;DHT22;27790;50.840;4.386;2022-12-20T04:42:14;13.60;99.90
39675;DHT22;27790;50.840;4.386;2022-12-20T04:44:40;13.50;99.90
39675;DHT22;27790;50.840;4.386;2022-12-20T04:47:05;13.50;99.90
39675;DHT22;27790;50.840;4.386;2022-12-20T04:49:31;13.50;99.90
39675;DHT22;27790;50.840;4.386;2022-12-20T04:51:56;13.50;99.90
39675;DHT22;27790;50.840;4.386;2022-12-20T04:54:42;13.30;99.90
39675;DHT22;27790;50.840;4.386;2022-12-20T04:57:07;13.20;99.90
39675;DHT22;27790;50.840;4.386;2022-12-20T04:59:34;13.20;99.90
39675;DHT22;27790;50.840;4.386;2022-12-20T05:02:00;13.20;99.90
39675;DHT22;27790;50.840;4.386;2022-12-20T05:04:26;13.30;99.90
39675;DHT22;27790;50.840;4.386;2022-12-20T05:06:51;13.40;99.90
39675;DHT22;27790;50.840;4.386;2022-12-20T05:09:17;13.40;99.90
39675;DHT22;27790;50.840;4.386;2022-12-20T05:11:42;13.40;99.90
39675;DHT22;27790;50.840;4.386;2022-12-20T05:14:08;13.30;99.90
39675;DHT22;27790;50.840;4.386;2022-12-20T05:16:34;13.40;99.90
39675;DHT22;27790;50.840;4.386;2022-12-20T05:19:02;13.30;99.90
39675;DHT22;27790;50.840;4.386;2022-12-20T05:21:29;13.40;99.90
39675;DHT22;27790;50.840;4.386;2022-12-20T05:24:06;13.30;99.90
39675;DHT22;27790;50.840;4.386;2022-12-20T05:26:42;13.20;99.90
39675;DHT22;27790;50.840;4.386;2022-12-20T05:29:08;13.20;99.90
39675;DHT22;27790;50.840;4.386;2022-12-20T05:31:33;13.20;99.90
39675;DHT22;27790;50.840;4.386;2022-12-20T05:33:59;13.10;99.90
39675;DHT22;27790;50.840;4.386;2022-12-20T05:36:25;13.10;99.90
39675;DHT22;27790;50.840;4.386;2022-12-20T05:38:50;13.20;99.90
39675;DHT22;27790;50.840;4.386;2022-12-20T05:41:16;13.10;99.90
39675;DHT22;27790;50.840;4.386;2022-12-20T05:43:41;13.10;99.90
39675;DHT22;27790;50.840;4.386;2022-12-20T05:46:07;13.10;99.90
39675;DHT22;27790;50.840;4.386;2022-12-20T05:48:33;13.10;99.90
39675;DHT22;27790;50.840;4.386;2022-12-20T05:50:58;13.10;99.90
39675;DHT22;27790;50.840;4.386;2022-12-20T05:53:24;13.10;99.90
39675;DHT22;27790;50.840;4.386;2022-12-20T05:55:52;13.10;99.90
39675;DHT22;27790;50.840;4.386;2022-12-20T05:58:19;13.10;99.90
39675;DHT22;27790;50.840;4.386;2022-12-20T06:00:45;13.20;99.90
39675;DHT22;27790;50.840;4.386;2022-12-20T06:03:12;13.10;99.90
39675;DHT22;27790;50.840;4.386;2022-12-20T06:05:39;13.10;99.90
39675;DHT22;27790;50.840;4.386;2022-12-20T06:08:06;13.20;99.90
39675;DHT22;27790;50.840;4.386;2022-12-20T06:10:32;13.20;99.90
39675;DHT22;27790;50.840;4.386;2022-12-20T06:12:59;13.30;99.90
39675;DHT22;27790;50.840;4.386;2022-12-20T06:15:25;13.30;99.90
39675;DHT22;27790;50.840;4.386;2022-12-20T06:17:51;13.30;99.90
39675;DHT22;27790;50.840;4.386;2022-12-20T06:20:16;13.30;99.90
39675;DHT22;27790;50.840;4.386;2022-12-20T06:22:42;13.30;99.90
39675;DHT22;27790;50.840;4.386;2022-12-20T06:25:08;13.30;99.90
39675;DHT22;27790;50.840;4.386;2022-12-20T06:27:35;13.30;99.90
39675;DHT22;27790;50.840;4.386;2022-12-20T06:30:02;13.40;99.90
39675;DHT22;27790;50.840;4.386;2022-12-20T06:32:28;13.40;99.90
39675;DHT22;27790;50.840;4.386;2022-12-20T06:34:54;13.50;99.90
39675;DHT22;27790;50.840;4.386;2022-12-20T06:37:19;13.60;99.90
39675;DHT22;27790;50.840;4.386;2022-12-20T06:39:45;13.70;99.90
39675;DHT22;27790;50.840;4.386;2022-12-20T06:42:10;13.70;99.90
39675;DHT22;27790;50.840;4.386;2022-12-20T06:44:36;13.80;99.90
39675;DHT22;27790;50.840;4.386;2022-12-20T06:47:02;13.70;99.90
39675;DHT22;27790;50.840;4.386;2022-12-20T06:49:27;13.70;99.90
39675;DHT22;27790;50.840;4.386;2022-12-20T06:51:54;13.80;99.90
39675;DHT22;27790;50.840;4.386;2022-12-20T06:54:19;13.80;99.90
39675;DHT22;27790;50.840;4.386;2022-12-20T06:56:45;13.90;99.90
39675;DHT22;27790;50.840;4.386;2022-12-20T06:59:11;13.90;99.90
39675;DHT22;27790;50.840;4.386;2022-12-20T07:01:36;14.00;99.90
39675;DHT22;27790;50.840;4.386;2022-12-20T07:04:02;14.00;99.90
39675;DHT22;27790;50.840;4.386;2022-12-20T07:06:28;14.00;99.90
39675;DHT22;27790;50.840;4.386;2022-12-20T07:08:54;14.00;99.90
39675;DHT22;27790;50.840;4.386;2022-12-20T07:11:19;13.90;99.90
39675;DHT22;27790;50.840;4.386;2022-12-20T07:13:45;13.90;99.90
39675;DHT22;27790;50.840;4.386;2022-12-20T07:16:11;13.60;99.90
39675;DHT22;27790;50.840;4.386;2022-12-20T07:18:36;13.60;99.90
39675;DHT22;27790;50.840;4.386;2022-12-20T07:21:03;13.60;99.90
39675;DHT22;27790;50.840;4.386;2022-12-20T07:23:29;13.60;99.90
39675;DHT22;27790;50.840;4.386;2022-12-20T07:25:56;13.50;99.90
39675;DHT22;27790;50.840;4.386;2022-12-20T07:28:23;13.40;99.90
39675;DHT22;27790;50.840;4.386;2022-12-20T07:30:49;13.30;99.90
39675;DHT22;27790;50.840;4.386;2022-12-20T07:33:14;13.40;99.90
39675;DHT22;27790;50.840;4.386;2022-12-20T07:35:40;13.30;99.90
39675;DHT22;27790;50.840;4.386;2022-12-20T07:38:06;13.10;99.90
39675;DHT22;27790;50.840;4.386;2022-12-20T07:40:31;13.10;99.90
39675;DHT22;27790;50.840;4.386;2022-12-20T07:42:57;13.00;99.90
39675;DHT22;27790;50.840;4.386;2022-12-20T07:45:22;13.00;99.90
39675;DHT22;27790;50.840;4.386;2022-12-20T07:47:48;12.90;99.90
39675;DHT22;27790;50.840;4.386;2022-12-20T07:50:14;12.90;99.90
39675;DHT22;27790;50.840;4.386;2022-12-20T07:52:42;12.90;99.90
39675;DHT22;27790;50.840;4.386;2022-12-20T07:55:08;12.80;99.90
39675;DHT22;27790;50.840;4.386;2022-12-20T07:57:45;12.80;99.90
39675;DHT22;27790;50.840;4.386;2022-12-20T08:00:13;12.80;99.90
39675;DHT22;27790;50.840;4.386;2022-12-20T08:02:57;12.90;99.90
39675;DHT22;27790;50.840;4.386;2022-12-20T08:05:26;13.10;99.90
39675;DHT22;27790;50.840;4.386;2022-12-20T08:07:53;13.10;99.90
39675;DHT22;27790;50.840;4.386;2022-12-20T08:10:21;13.00;99.90
39675;DHT22;27790;50.840;4.386;2022-12-20T08:12:47;12.90;99.90
39675;DHT22;27790;50.840;4.386;2022-12-20T08:15:13;12.90;99.90
39675;DHT22;27790;50.840;4.386;2022-12-20T08:17:39;13.00;99.90
39675;DHT22;27790;50.840;4.386;2022-12-20T08:20:05;13.00;99.90
39675;DHT22;27790;50.840;4.386;2022-12-20T08:22:33;13.00;99.90
39675;DHT22;27790;50.840;4.386;2022-12-20T08:24:59;13.00;99.90
39675;DHT22;27790;50.840;4.386;2022-12-20T08:27:24;13.00;99.90
39675;DHT22;27790;50.840;4.386;2022-12-20T08:29:53;13.00;99.90
39675;DHT22;27790;50.840;4.386;2022-12-20T08:32:19;13.00;99.90
39675;DHT22;27790;50.840;4.386;2022-12-20T08:34:44;12.90;99.90
39675;DHT22;27790;50.840;4.386;2022-12-20T08:37:10;13.00;99.90
39675;DHT22;27790;50.840;4.386;2022-12-20T08:39:36;13.00;99.90
39675;DHT22;27790;50.840;4.386;2022-12-20T08:42:04;13.00;99.90
39675;DHT22;27790;50.840;4.386;2022-12-20T08:44:30;13.00;99.90
39675;DHT22;27790;50.840;4.386;2022-12-20T08:46:55;13.00;99.90
39675;DHT22;27790;50.840;4.386;2022-12-20T08:49:21;13.00;99.90
39675;DHT22;27790;50.840;4.386;2022-12-20T08:51:46;13.10;99.90
39675;DHT22;27790;50.840;4.386;2022-12-20T08:54:12;13.20;99.90
39675;DHT22;27790;50.840;4.386;2022-12-20T08:56:40;13.20;99.90
39675;DHT22;27790;50.840;4.386;2022-12-20T08:59:05;13.30;99.90
39675;DHT22;27790;50.840;4.386;2022-12-20T09:01:31;13.30;99.90
39675;DHT22;27790;50.840;4.386;2022-12-20T09:03:58;13.30;99.90
39675;DHT22;27790;50.840;4.386;2022-12-20T09:06:23;13.40;99.90
39675;DHT22;27790;50.840;4.386;2022-12-20T09:09:07;13.40;99.90
39675;DHT22;27790;50.840;4.386;2022-12-20T09:11:33;13.30;99.90
39675;DHT22;27790;50.840;4.386;2022-12-20T09:13:59;13.30;99.90
39675;DHT22;27790;50.840;4.386;2022-12-20T09:16:28;13.40;99.90
39675;DHT22;27790;50.840;4.386;2022-12-20T09:18:56;13.40;99.90
39675;DHT22;27790;50.840;4.386;2022-12-20T09:21:22;13.40;99.90
39675;DHT22;27790;50.840;4.386;2022-12-20T09:23:52;13.50;99.90
39675;DHT22;27790;50.840;4.386;2022-12-20T09:26:19;13.50;99.90
39675;DHT22;27790;50.840;4.386;2022-12-20T09:28:45;13.60;99.90
39675;DHT22;27790;50.840;4.386;2022-12-20T09:31:14;13.70;99.90
39675;DHT22;27790;50.840;4.386;2022-12-20T09:33:40;13.70;99.90
39675;DHT22;27790;50.840;4.386;2022-12-20T09:36:13;13.60;99.90
39675;DHT22;27790;50.840;4.386;2022-12-20T09:38:43;13.60;99.90
39675;DHT22;27790;50.840;4.386;2022-12-20T09:41:31;13.50;99.90
39675;DHT22;27790;50.840;4.386;2022-12-20T09:44:01;13.60;99.90
39675;DHT22;27790;50.840;4.386;2022-12-20T09:46:28;13.50;99.90
39675;DHT22;27790;50.840;4.386;2022-12-20T09:48:54;13.40;99.90
39675;DHT22;27790;50.840;4.386;2022-12-20T09:59:19;13.40;99.90
39675;DHT22;27790;50.840;4.386;2022-12-20T10:01:47;13.30;99.90
39675;DHT22;27790;50.840;4.386;2022-12-20T10:04:24;13.20;99.90
39675;DHT22;27790;50.840;4.386;2022-12-20T10:07:09;13.30;99.90
39675;DHT22;27790;50.840;4.386;2022-12-20T10:18:03;13.10;99.90
39675;DHT22;27790;50.840;4.386;2022-12-20T10:25:56;13.10;99.90
39675;DHT22;27790;50.840;4.386;2022-12-20T10:28:33;13.00;99.90
39675;DHT22;27790;50.840;4.386;2022-12-20T10:31:04;13.10;99.90
39675;DHT22;27790;50.840;4.386;2022-12-20T10:33:31;13.10;99.90
39675;DHT22;27790;50.840;4.386;2022-12-20T10:36:21;13.00;99.90
39675;DHT22;27790;50.840;4.386;2022-12-20T10:38:50;13.00;99.90
39675;DHT22;27790;50.840;4.386;2022-12-20T10:41:22;13.00;99.90
39675;DHT22;27790;50.840;4.386;2022-12-20T10:43:53;13.00;99.90
39675;DHT22;27790;50.840;4.386;2022-12-20T10:46:21;13.00;99.90
39675;DHT22;27790;50.840;4.386;2022-12-20T10:48:47;13.00;99.90
39675;DHT22;27790;50.840;4.386;2022-12-20T10:53:53;12.90;99.90
39675;DHT22;27790;50.840;4.386;2022-12-20T10:56:23;13.00;99.90
39675;DHT22;27790;50.840;4.386;2022-12-20T11:01:47;13.00;99.90
39675;DHT22;27790;50.840;4.386;2022-12-20T11:07:01;13.00;99.90
39675;DHT22;27790;50.840;4.386;2022-12-20T11:09:33;13.00;99.90
39675;DHT22;27790;50.840;4.386;2022-12-20T11:12:02;13.10;99.90
39675;DHT22;27790;50.840;4.386;2022-12-20T11:14:28;13.10;99.90
39675;DHT22;27790;50.840;4.386;2022-12-20T11:16:55;13.10;99.90
39675;DHT22;27790;50.840;4.386;2022-12-20T11:25:04;13.10;99.90
39675;DHT22;27790;50.840;4.386;2022-12-20T11:30:48;13.00;99.90
39675;DHT22;27790;50.840;4.386;2022-12-20T11:36:15;13.00;99.90
39675;DHT22;27790;50.840;4.386;2022-12-20T11:38:49;13.10;99.90
39675;DHT22;27790;50.840;4.386;2022-12-20T11:54:40;12.90;99.90
39675;DHT22;27790;50.840;4.386;2022-12-20T11:57:27;12.80;99.90
39675;DHT22;27790;50.840;4.386;2022-12-20T11:59:59;12.70;99.90
39675;DHT22;27790;50.840;4.386;2022-12-20T12:02:36;12.70;99.90
39675;DHT22;27790;50.840;4.386;2022-12-20T12:05:14;12.80;99.90
39675;DHT22;27790;50.840;4.386;2022-12-20T12:07:47;12.70;99.90
39675;DHT22;27790;50.840;4.386;2022-12-20T12:10:20;12.70;99.90
39675;DHT22;27790;50.840;4.386;2022-12-20T12:12:57;12.70;99.90
39675;DHT22;27790;50.840;4.386;2022-12-20T12:18:23;12.70;99.90
39675;DHT22;27790;50.840;4.386;2022-12-20T12:28:39;12.70;99.90
39675;DHT22;27790;50.840;4.386;2022-12-20T12:31:10;12.60;99.90
39675;DHT22;27790;50.840;4.386;2022-12-20T12:33:45;12.60;99.90
39675;DHT22;27790;50.840;4.386;2022-12-20T12:36:37;12.60;99.90
39675;DHT22;27790;50.840;4.386;2022-12-20T12:42:00;12.80;99.90
39675;DHT22;27790;50.840;4.386;2022-12-20T12:44:54;12.70;99.90
39675;DHT22;27790;50.840;4.386;2022-12-20T12:50:00;12.70;99.90
39675;DHT22;27790;50.840;4.386;2022-12-20T12:52:36;12.60;99.90
39675;DHT22;27790;50.840;4.386;2022-12-20T13:03:36;12.60;99.90
39675;DHT22;27790;50.840;4.386;2022-12-20T13:11:38;12.70;99.90
39675;DHT22;27790;50.840;4.386;2022-12-20T13:16:44;12.60;99.90
39675;DHT22;27790;50.840;4.386;2022-12-20T13:19:33;12.70;99.90
39675;DHT22;27790;50.840;4.386;2022-12-20T13:40:55;12.80;99.90
39675;DHT22;27790;50.840;4.386;2022-12-20T13:51:06;12.80;99.90
39675;DHT22;27790;50.840;4.386;2022-12-20T13:53:35;12.90;99.90
39675;DHT22;27790;50.840;4.386;2022-12-20T13:56:19;12.80;99.90
39675;DHT22;27790;50.840;4.386;2022-12-20T13:58:56;12.80;99.90
39675;DHT22;27790;50.840;4.386;2022-12-20T14:01:24;12.90;99.90
39675;DHT22;27790;50.840;4.386;2022-12-20T14:03:51;12.90;99.90
39675;DHT22;27790;50.840;4.386;2022-12-20T14:06:19;12.90;99.90
39675;DHT22;27790;50.840;4.386;2022-12-20T14:08:47;12.80;99.90
39675;DHT22;27790;50.840;4.386;2022-12-20T14:13:41;12.80;99.90
39675;DHT22;27790;50.840;4.386;2022-12-20T14:16:12;12.90;99.90
39675;DHT22;27790;50.840;4.386;2022-12-20T14:18:39;12.80;99.90
39675;DHT22;27790;50.840;4.386;2022-12-20T14:21:06;12.90;99.90
39675;DHT22;27790;50.840;4.386;2022-12-20T14:26:06;13.00;99.90
39675;DHT22;27790;50.840;4.386;2022-12-20T14:28:43;12.90;99.90
39675;DHT22;27790;50.840;4.386;2022-12-20T14:36:30;12.80;99.90
39675;DHT22;27790;50.840;4.386;2022-12-20T14:38:56;12.90;99.90
39675;DHT22;27790;50.840;4.386;2022-12-20T14:41:37;12.90;99.90
39675;DHT22;27790;50.840;4.386;2022-12-20T14:46:33;12.70;99.90
39675;DHT22;27790;50.840;4.386;2022-12-20T14:51:37;12.60;99.90
39675;DHT22;27790;50.840;4.386;2022-12-20T14:54:03;12.70;99.90
39675;DHT22;27790;50.840;4.386;2022-12-20T14:56:29;12.70;99.90
39675;DHT22;27790;50.840;4.386;2022-12-20T14:59:12;12.60;99.90
39675;DHT22;27790;50.840;4.386;2022-12-20T15:01:38;12.50;99.90
39675;DHT22;27790;50.840;4.386;2022-12-20T15:06:57;12.40;99.90
39675;DHT22;27790;50.840;4.386;2022-12-20T15:09:23;12.40;99.90
39675;DHT22;27790;50.840;4.386;2022-12-20T15:11:50;12.30;99.90
39675;DHT22;27790;50.840;4.386;2022-12-20T15:16:51;12.40;99.90
39675;DHT22;27790;50.840;4.386;2022-12-20T15:19:17;12.40;99.90
39675;DHT22;27790;50.840;4.386;2022-12-20T15:21:43;12.40;99.90
39675;DHT22;27790;50.840;4.386;2022-12-20T15:24:18;12.40;99.90
39675;DHT22;27790;50.840;4.386;2022-12-20T15:26:46;12.40;99.90
39675;DHT22;27790;50.840;4.386;2022-12-20T15:29:17;12.40;99.90
39675;DHT22;27790;50.840;4.386;2022-12-20T15:31:44;12.40;99.90
39675;DHT22;27790;50.840;4.386;2022-12-20T15:34:42;12.40;99.90
39675;DHT22;27790;50.840;4.386;2022-12-20T15:37:10;12.40;99.90
39675;DHT22;27790;50.840;4.386;2022-12-20T15:39:39;12.40;99.90
39675;DHT22;27790;50.840;4.386;2022-12-20T15:42:05;12.40;99.90
39675;DHT22;27790;50.840;4.386;2022-12-20T15:44:32;12.50;99.90
39675;DHT22;27790;50.840;4.386;2022-12-20T15:47:00;12.50;99.90
39675;DHT22;27790;50.840;4.386;2022-12-20T15:49:30;12.50;99.90
39675;DHT22;27790;50.840;4.386;2022-12-20T15:51:56;12.50;99.90
39675;DHT22;27790;50.840;4.386;2022-12-20T15:54:27;12.50;99.90
39675;DHT22;27790;50.840;4.386;2022-12-20T15:56:55;12.50;99.90
39675;DHT22;27790;50.840;4.386;2022-12-20T15:59:20;12.50;99.90
39675;DHT22;27790;50.840;4.386;2022-12-20T16:01:46;12.60;99.90
39675;DHT22;27790;50.840;4.386;2022-12-20T16:04:17;12.70;99.90
39675;DHT22;27790;50.840;4.386;2022-12-20T16:06:45;12.60;99.90
39675;DHT22;27790;50.840;4.386;2022-12-20T16:09:11;12.70;99.90
39675;DHT22;27790;50.840;4.386;2022-12-20T16:11:37;12.60;99.90
39675;DHT22;27790;50.840;4.386;2022-12-20T16:14:03;12.50;99.90
39675;DHT22;27790;50.840;4.386;2022-12-20T16:16:33;12.30;99.90
39675;DHT22;27790;50.840;4.386;2022-12-20T16:19:00;12.40;99.90
39675;DHT22;27790;50.840;4.386;2022-12-20T16:21:33;12.50;99.90
39675;DHT22;27790;50.840;4.386;2022-12-20T16:24:01;12.40;99.90
39675;DHT22;27790;50.840;4.386;2022-12-20T16:26:27;12.50;99.90
39675;DHT22;27790;50.840;4.386;2022-12-20T16:28:54;12.50;99.90
39675;DHT22;27790;50.840;4.386;2022-12-20T16:31:30;12.50;99.90
39675;DHT22;27790;50.840;4.386;2022-12-20T16:33:57;12.50;99.90
39675;DHT22;27790;50.840;4.386;2022-12-20T16:36:23;12.40;99.90
39675;DHT22;27790;50.840;4.386;2022-12-20T16:38:50;12.50;99.90
39675;DHT22;27790;50.840;4.386;2022-12-20T16:41:18;12.50;99.90
39675;DHT22;27790;50.840;4.386;2022-12-20T16:43:45;12.60;99.90
39675;DHT22;27790;50.840;4.386;2022-12-20T16:46:15;12.60;99.90
39675;DHT22;27790;50.840;4.386;2022-12-20T16:48:42;12.60;99.90
39675;DHT22;27790;50.840;4.386;2022-12-20T16:54:01;12.60;99.90
39675;DHT22;27790;50.840;4.386;2022-12-20T16:56:28;12.60;99.90
39675;DHT22;27790;50.840;4.386;2022-12-20T16:58:54;12.50;99.90
39675;DHT22;27790;50.840;4.386;2022-12-20T17:01:22;12.40;99.90
39675;DHT22;27790;50.840;4.386;2022-12-20T17:03:48;12.40;99.90
39675;DHT22;27790;50.840;4.386;2022-12-20T17:06:15;12.40;99.90
39675;DHT22;27790;50.840;4.386;2022-12-20T17:08:41;12.40;99.90
39675;DHT22;27790;50.840;4.386;2022-12-20T17:11:22;12.40;99.90
39675;DHT22;27790;50.840;4.386;2022-12-20T17:13:50;12.40;99.90
39675;DHT22;27790;50.840;4.386;2022-12-20T17:16:16;12.30;99.90
39675;DHT22;27790;50.840;4.386;2022-12-20T17:18:47;12.30;99.90
39675;DHT22;27790;50.840;4.386;2022-12-20T17:21:20;12.20;99.90
39675;DHT22;27790;50.840;4.386;2022-12-20T17:23:46;12.20;99.90
39675;DHT22;27790;50.840;4.386;2022-12-20T17:26:19;12.20;99.90
39675;DHT22;27790;50.840;4.386;2022-12-20T17:28:46;12.20;99.90
39675;DHT22;27790;50.840;4.386;2022-12-20T17:31:36;12.30;99.90
39675;DHT22;27790;50.840;4.386;2022-12-20T17:36:30;12.30;99.90
39675;DHT22;27790;50.840;4.386;2022-12-20T17:38:56;12.30;99.90
39675;DHT22;27790;50.840;4.386;2022-12-20T17:41:28;12.40;99.90
39675;DHT22;27790;50.840;4.386;2022-12-20T17:43:55;12.40;99.90
39675;DHT22;27790;50.840;4.386;2022-12-20T17:46:22;12.50;99.90
39675;DHT22;27790;50.840;4.386;2022-12-20T17:48:48;12.50;99.90
39675;DHT22;27790;50.840;4.386;2022-12-20T17:53:46;12.60;99.90
39675;DHT22;27790;50.840;4.386;2022-12-20T17:56:14;12.60;99.90
39675;DHT22;27790;50.840;4.386;2022-12-20T17:58:42;12.60;99.90
39675;DHT22;27790;50.840;4.386;2022-12-20T18:01:26;12.70;99.90
39675;DHT22;27790;50.840;4.386;2022-12-20T18:03:52;12.70;99.90
39675;DHT22;27790;50.840;4.386;2022-12-20T18:06:18;12.70;99.90
39675;DHT22;27790;50.840;4.386;2022-12-20T18:08:48;12.70;99.90
39675;DHT22;27790;50.840;4.386;2022-12-20T18:11:14;12.70;99.90
39675;DHT22;27790;50.840;4.386;2022-12-20T18:13:44;12.60;99.90
39675;DHT22;27790;50.840;4.386;2022-12-20T18:16:11;12.60;99.90